createdAt,value
2023-02-26T00:00:53.571Z,8.00
2023-02-26T00:03:43.304Z,7.20
2023-02-26T00:06:37.628Z,6.50
2023-02-26T00:09:24.853Z,8.40
2023-02-26T00:11:58.252Z,12.10
2023-02-26T00:14:51.893Z,11.10
2023-02-26T00:17:52.522Z,8.90
2023-02-26T00:20:45.720Z,12.00
2023-02-26T00:23:38.774Z,6.10
2023-02-26T00:26:21.411Z,10.20
2023-02-26T00:29:14.524Z,15.60
2023-02-26T00:32:09.067Z,10.10
2023-02-26T00:35:04.318Z,7.80
2023-02-26T00:38:01.960Z,8.00
2023-02-26T00:40:56.870Z,10.90
2023-02-26T00:43:50.180Z,21.50
2023-02-26T00:46:46.477Z,21.70
2023-02-26T00:49:53.636Z,12.20
2023-02-26T00:52:47.350Z,21.60
2023-02-26T00:55:39.694Z,15.20
2023-02-26T00:58:24.530Z,12.10
2023-02-26T01:01:00.828Z,16.60
2023-02-26T01:03:40.391Z,14.40
2023-02-26T01:09:28.535Z,8.20
2023-02-26T01:12:09.003Z,12.60
2023-02-26T01:14:47.387Z,14.30
2023-02-26T01:17:35.146Z,7.50
2023-02-26T01:20:21.438Z,8.40
2023-02-26T01:23:13.459Z,7.90
2023-02-26T01:26:14.218Z,8.40
2023-02-26T01:29:07.318Z,10.10
2023-02-26T01:32:01.236Z,9.60
2023-02-26T01:34:53.149Z,11.10
2023-02-26T01:37:49.937Z,12.50
2023-02-26T01:40:47.364Z,9.10
2023-02-26T01:43:46.886Z,7.70
2023-02-26T01:46:49.947Z,5.90
2023-02-26T01:49:33.744Z,6.30
2023-02-26T01:53:05.908Z,6.60
2023-02-26T01:55:46.910Z,7.00
2023-02-26T01:58:33.469Z,7.40
2023-02-26T02:01:26.016Z,8.00
2023-02-26T02:04:14.270Z,9.70
2023-02-26T02:07:07.537Z,7.80
2023-02-26T02:10:00.042Z,9.60
2023-02-26T02:12:50.183Z,12.20
2023-02-26T02:15:32.034Z,9.80
2023-02-26T02:18:18.572Z,12.50
2023-02-26T02:21:53.457Z,8.70
2023-02-26T02:24:59.276Z,9.70
2023-02-26T02:28:01.816Z,9.10
2023-02-26T02:31:07.686Z,11.40
2023-02-26T02:34:04.957Z,7.60
2023-02-26T02:37:00.783Z,6.60
2023-02-26T02:39:57.789Z,6.20
2023-02-26T02:44:04.543Z,9.80
2023-02-26T02:46:44.702Z,6.90
2023-02-26T02:49:43.970Z,3.90
2023-02-26T02:52:41.980Z,5.10
2023-02-26T02:55:34.289Z,5.70
2023-02-26T02:58:30.935Z,5.40
2023-02-26T03:01:26.932Z,6.70
2023-02-26T03:04:20.086Z,5.30
2023-02-26T03:07:12.780Z,6.10
2023-02-26T03:09:58.759Z,5.70
2023-02-26T03:12:51.230Z,10.60
2023-02-26T03:16:07.286Z,7.00
2023-02-26T03:19:06.959Z,4.10
2023-02-26T03:22:03.796Z,8.20
2023-02-26T03:25:05.061Z,8.30
2023-02-26T03:27:59.035Z,7.50
2023-02-26T03:30:59.567Z,4.40
2023-02-26T03:33:45.711Z,8.10
2023-02-26T03:36:42.112Z,6.30
2023-02-26T03:42:30.140Z,4.40
2023-02-26T03:45:12.724Z,5.40
2023-02-26T03:47:59.967Z,9.80
2023-02-26T03:50:58.096Z,3.80
2023-02-26T03:53:53.305Z,5.00
2023-02-26T03:56:48.706Z,5.50
2023-02-26T03:59:50.555Z,6.70
2023-02-26T04:02:47.128Z,3.50
2023-02-26T04:05:45.109Z,6.10
2023-02-26T04:08:37.876Z,7.30
2023-02-26T04:11:21.548Z,7.90
2023-02-26T04:14:14.436Z,7.10
2023-02-26T04:16:57.295Z,9.00
2023-02-26T04:19:48.395Z,7.80
2023-02-26T04:22:26.299Z,9.40
2023-02-26T04:25:03.012Z,9.20
2023-02-26T04:27:47.882Z,6.10
2023-02-26T04:33:21.744Z,6.70
2023-02-26T04:36:14.176Z,6.00
2023-02-26T04:39:00.435Z,7.50
2023-02-26T04:41:52.741Z,8.30
2023-02-26T04:44:37.835Z,8.60
2023-02-26T04:47:30.429Z,8.60
2023-02-26T04:50:23.482Z,7.70
2023-02-26T04:53:16.334Z,8.40
2023-02-26T04:56:02.058Z,8.70
2023-02-26T04:58:54.412Z,8.30
2023-02-26T05:01:46.874Z,6.90
2023-02-26T05:04:39.232Z,6.20
2023-02-26T05:07:31.977Z,4.30
2023-02-26T05:10:15.812Z,6.60
2023-02-26T05:13:08.156Z,7.70
2023-02-26T05:16:00.638Z,7.30
2023-02-26T05:18:47.108Z,7.90
2023-02-26T05:21:25.886Z,8.00
2023-02-26T05:24:20.192Z,6.60
2023-02-26T05:27:05.516Z,8.80
2023-02-26T05:29:58.112Z,5.30
2023-02-26T05:32:50.839Z,3.80
2023-02-26T05:35:43.487Z,5.20
2023-02-26T05:38:36.737Z,3.90
2023-02-26T05:41:21.466Z,5.90
2023-02-26T05:44:13.831Z,5.50
2023-02-26T05:47:14.642Z,7.60
2023-02-26T05:55:40.646Z,5.50
2023-02-26T05:58:34.150Z,7.00
2023-02-26T06:01:26.655Z,5.50
2023-02-26T06:04:10.170Z,6.00
2023-02-26T06:07:02.742Z,4.40
2023-02-26T06:12:40.335Z,6.40
2023-02-26T06:15:26.774Z,4.70
2023-02-26T06:18:19.007Z,7.50
2023-02-26T06:20:53.917Z,4.70
2023-02-26T06:23:29.295Z,5.30
2023-02-26T06:26:23.807Z,4.80
2023-02-26T06:28:59.316Z,6.90
2023-02-26T06:31:51.223Z,5.60
2023-02-26T06:34:32.573Z,3.80
2023-02-26T06:37:25.498Z,4.50
2023-02-26T06:40:43.241Z,7.20
2023-02-26T06:43:36.246Z,6.10
2023-02-26T06:46:30.376Z,6.30
2023-02-26T06:49:26.238Z,7.20
2023-02-26T06:52:28.511Z,4.90
2023-02-26T06:58:07.790Z,5.40
2023-02-26T07:00:51.070Z,8.20
2023-02-26T07:03:59.996Z,8.90
2023-02-26T07:06:38.092Z,8.70
2023-02-26T07:09:30.498Z,9.90
2023-02-26T07:12:31.747Z,12.10
2023-02-26T07:15:13.491Z,8.80
2023-02-26T07:18:19.172Z,8.00
2023-02-26T07:21:06.748Z,8.70
2023-02-26T07:23:59.141Z,11.00
2023-02-26T07:26:52.106Z,12.30
2023-02-26T07:29:44.920Z,12.80
2023-02-26T07:32:37.928Z,10.20
2023-02-26T07:35:32.547Z,9.30
2023-02-26T07:38:27.053Z,7.00
2023-02-26T07:41:19.854Z,5.60
2023-02-26T07:44:12.692Z,8.70
2023-02-26T07:47:05.477Z,8.30
2023-02-26T07:49:56.965Z,4.70
2023-02-26T07:52:50.035Z,7.50
2023-02-26T07:55:41.883Z,18.40
2023-02-26T07:58:27.359Z,26.30
2023-02-26T08:01:21.032Z,65.30
2023-02-26T08:04:13.932Z,30.10
2023-02-26T08:09:49.231Z,8.30
2023-02-26T08:12:41.672Z,8.20
2023-02-26T08:15:27.911Z,8.10
2023-02-26T08:18:21.637Z,10.30
2023-02-26T08:21:13.983Z,9.90
2023-02-26T08:24:06.742Z,11.40
2023-02-26T08:26:48.324Z,9.50
2023-02-26T08:29:30.686Z,73.90
2023-02-26T08:32:17.822Z,63.30
2023-02-26T08:35:12.119Z,27.60
2023-02-26T08:38:04.492Z,20.10
2023-02-26T08:43:37.972Z,16.60
2023-02-26T08:46:20.711Z,140.10
2023-02-26T08:49:10.013Z,72.90
2023-02-26T08:52:02.931Z,273.30
2023-02-26T08:54:55.345Z,17.20
2023-02-26T09:00:40.219Z,55.20
2023-02-26T09:03:24.961Z,59.50
2023-02-26T09:06:17.503Z,177.60
2023-02-26T09:09:10.128Z,74.80
2023-02-26T09:12:02.567Z,28.20
2023-02-26T09:17:39.294Z,40.50
2023-02-26T09:20:16.461Z,9.90
2023-02-26T09:23:08.882Z,9.60
2023-02-26T09:26:01.212Z,17.40
2023-02-26T09:28:37.247Z,10.80
2023-02-26T09:31:29.873Z,9.70
2023-02-26T09:34:02.204Z,66.00
2023-02-26T09:36:54.490Z,33.70
2023-02-26T09:39:46.405Z,42.30
2023-02-26T09:42:58.921Z,31.20
2023-02-26T09:45:46.396Z,16.80
2023-02-26T09:48:33.218Z,19.90
2023-02-26T09:51:27.803Z,39.00
2023-02-26T09:54:23.685Z,26.30
2023-02-26T09:57:21.823Z,50.60
2023-02-26T10:00:24.702Z,40.10
2023-02-26T10:03:26.782Z,64.40
2023-02-26T10:06:28.269Z,40.90
2023-02-26T10:09:38.623Z,36.20
2023-02-26T10:12:35.060Z,57.60
2023-02-26T10:15:16.659Z,19.80
2023-02-26T10:18:07.187Z,20.30
2023-02-26T10:20:58.027Z,23.70
2023-02-26T10:23:48.921Z,21.80
2023-02-26T10:26:46.372Z,13.50
2023-02-26T10:29:44.845Z,7.50
2023-02-26T10:32:39.934Z,7.40
2023-02-26T10:35:38.184Z,8.30
2023-02-26T10:38:33.111Z,10.00
2023-02-26T10:41:30.535Z,3.20
2023-02-26T10:44:29.347Z,4.30
2023-02-26T10:47:32.900Z,3.80
2023-02-26T10:50:26.622Z,1.70
2023-02-26T10:53:19.533Z,7.70
2023-02-26T10:58:59.013Z,6.00
2023-02-26T11:01:45.523Z,2.00
2023-02-26T11:04:37.978Z,6.50
2023-02-26T11:10:28.225Z,6.30
2023-02-26T11:13:04.713Z,2.60
2023-02-26T11:16:00.188Z,5.40
2023-02-26T11:18:56.248Z,3.10
2023-02-26T11:21:52.121Z,4.20
2023-02-26T11:24:48.083Z,3.10
2023-02-26T11:27:31.914Z,2.50
2023-02-26T11:30:27.377Z,5.80
2023-02-26T11:33:23.487Z,4.70
2023-02-26T11:36:14.468Z,4.70
2023-02-26T11:39:03.451Z,2.70
2023-02-26T11:42:01.184Z,5.50
2023-02-26T11:44:54.454Z,3.70
2023-02-26T11:47:51.459Z,6.80
2023-02-26T11:50:44.208Z,4.80
2023-02-26T11:54:44.689Z,5.40
2023-02-26T11:57:25.199Z,6.70
2023-02-26T12:00:27.493Z,4.60
2023-02-26T12:03:22.277Z,3.60
2023-02-26T12:06:19.747Z,4.70
2023-02-26T12:09:15.551Z,1.80
2023-02-26T12:12:32.237Z,7.70
2023-02-26T12:15:27.804Z,3.30
2023-02-26T12:18:43.042Z,2.30
2023-02-26T12:21:57.580Z,3.80
2023-02-26T12:25:00.258Z,202.70
2023-02-26T12:28:10.713Z,273.90
2023-02-26T12:31:20.929Z,549.20
2023-02-26T12:34:20.226Z,526.70
2023-02-26T12:37:33.094Z,491.10
2023-02-26T12:43:36.028Z,51.70
2023-02-26T12:46:44.703Z,28.10
2023-02-26T12:49:55.037Z,36.80
2023-02-26T12:52:57.883Z,21.60
2023-02-26T12:58:50.480Z,27.00
2023-02-26T13:02:01.033Z,11.60
2023-02-26T13:05:15.020Z,9.70
2023-02-26T13:08:17.473Z,19.10
2023-02-26T13:11:21.734Z,3.10
2023-02-26T13:14:19.278Z,11.00
2023-02-26T13:17:11.826Z,6.90
2023-02-26T13:20:00.818Z,4.90
2023-02-26T13:23:00.153Z,13.00
2023-02-26T13:25:57.488Z,23.30
2023-02-26T13:28:49.193Z,97.10
2023-02-26T13:31:45.565Z,18.90
2023-02-26T13:34:38.625Z,129.20
2023-02-26T13:37:34.654Z,57.70
2023-02-26T13:40:43.997Z,218.70
2023-02-26T13:43:47.939Z,848.80
2023-02-26T13:46:53.694Z,898.00
2023-02-26T13:49:58.637Z,985.70
2023-02-26T13:52:54.331Z,1629.00
2023-02-26T13:55:49.435Z,820.20
2023-02-26T13:58:44.645Z,1879.20
2023-02-26T14:01:49.896Z,1965.30
2023-02-26T14:04:55.060Z,1788.10
2023-02-26T14:07:55.937Z,1127.90
2023-02-26T14:10:58.051Z,823.40
2023-02-26T14:14:12.726Z,306.60
2023-02-26T14:17:31.958Z,184.20
2023-02-26T14:20:28.530Z,78.50
2023-02-26T14:23:37.341Z,15.50
2023-02-26T14:26:34.270Z,9.50
2023-02-26T14:29:40.003Z,9.00
2023-02-26T14:32:35.668Z,8.70
2023-02-26T14:35:29.911Z,8.60
2023-02-26T14:38:25.953Z,24.20
2023-02-26T14:47:03.700Z,4.60
2023-02-26T14:50:00.447Z,6.20
2023-02-26T14:53:11.461Z,7.30
2023-02-26T14:56:12.857Z,6.30
2023-02-26T14:59:10.736Z,5.20
2023-02-26T15:02:16.760Z,7.20
2023-02-26T15:05:28.320Z,5.70
2023-02-26T15:08:37.064Z,4.40
2023-02-26T15:11:52.619Z,5.60
2023-02-26T15:15:12.156Z,6.60
2023-02-26T15:18:25.039Z,5.00
2023-02-26T15:21:09.270Z,24.20
2023-02-26T15:24:04.244Z,16.30
2023-02-26T15:27:00.188Z,7.90
2023-02-26T15:29:53.826Z,8.40
2023-02-26T15:32:41.430Z,18.70
2023-02-26T15:35:35.028Z,11.30
2023-02-26T15:38:27.835Z,16.20
2023-02-26T15:41:15.071Z,6.50
2023-02-26T15:44:11.336Z,9.10
2023-02-26T15:46:59.608Z,8.10
2023-02-26T15:49:39.230Z,8.90
2023-02-26T15:52:27.018Z,6.70
2023-02-26T15:55:20.350Z,10.10
2023-02-26T15:58:20.728Z,17.30
2023-02-26T16:01:25.286Z,93.00
2023-02-26T16:04:17.262Z,565.80
2023-02-26T16:07:13.619Z,528.90
2023-02-26T16:10:16.724Z,564.50
2023-02-26T16:13:14.167Z,524.10
2023-02-26T16:16:04.630Z,421.50
2023-02-26T16:18:58.774Z,376.10
2023-02-26T16:21:56.721Z,396.70
2023-02-26T16:24:43.046Z,458.50
2023-02-26T16:27:38.579Z,263.50
2023-02-26T16:30:32.976Z,129.70
2023-02-26T16:33:27.924Z,551.90
2023-02-26T16:36:26.338Z,298.00
2023-02-26T16:39:24.260Z,211.90
2023-02-26T16:42:22.478Z,367.80
2023-02-26T16:45:24.461Z,223.90
2023-02-26T16:48:24.622Z,396.60
2023-02-26T16:51:21.930Z,198.10
2023-02-26T16:54:14.589Z,74.50
2023-02-26T16:57:14.358Z,65.90
2023-02-26T17:00:17.734Z,41.90
2023-02-26T17:03:12.697Z,47.40
2023-02-26T17:06:10.702Z,72.60
2023-02-26T17:09:04.142Z,74.80
2023-02-26T17:11:45.791Z,97.40
2023-02-26T17:14:27.107Z,18.80
2023-02-26T17:17:02.322Z,13.50
2023-02-26T17:19:54.732Z,33.60
2023-02-26T17:22:39.866Z,32.20
2023-02-26T17:25:25.340Z,22.80
2023-02-26T17:28:22.636Z,13.30
2023-02-26T17:31:15.359Z,12.10
2023-02-26T17:34:13.133Z,14.50
2023-02-26T17:37:07.897Z,10.20
2023-02-26T17:40:04.194Z,7.70
2023-02-26T17:42:57.134Z,10.40
2023-02-26T17:45:40.939Z,8.60
2023-02-26T17:48:42.679Z,9.10
2023-02-26T17:51:35.090Z,9.70
2023-02-26T17:57:21.086Z,7.80
2023-02-26T18:00:01.612Z,7.90
2023-02-26T18:02:55.159Z,10.70
2023-02-26T18:05:43.372Z,11.20
2023-02-26T18:08:36.801Z,14.30
2023-02-26T18:11:29.806Z,13.40
2023-02-26T18:14:22.556Z,12.70
2023-02-26T18:17:26.524Z,17.40
2023-02-26T18:20:27.757Z,20.80
2023-02-26T18:23:20.666Z,18.50
2023-02-26T18:26:16.970Z,28.70
2023-02-26T18:29:10.812Z,88.50
2023-02-26T18:32:03.796Z,93.40
2023-02-26T18:34:56.602Z,82.60
2023-02-26T18:40:37.051Z,96.10
2023-02-26T18:43:30.332Z,99.50
2023-02-26T18:46:23.547Z,122.00
2023-02-26T18:49:22.110Z,71.00
2023-02-26T18:52:15.311Z,58.70
2023-02-26T18:55:09.866Z,60.60
2023-02-26T18:58:03.139Z,49.00
2023-02-26T19:00:48.306Z,43.00
2023-02-26T19:03:40.214Z,48.60
2023-02-26T19:06:32.890Z,42.40
2023-02-26T19:12:20.099Z,46.40
2023-02-26T19:15:15.305Z,50.20
2023-02-26T19:18:08.533Z,44.10
2023-02-26T19:21:02.632Z,68.40
2023-02-26T19:23:55.950Z,92.50
2023-02-26T19:26:49.116Z,99.70
2023-02-26T19:29:42.509Z,182.30
2023-02-26T19:32:39.488Z,140.10
2023-02-26T19:35:27.495Z,91.50
2023-02-26T19:38:20.960Z,78.50
2023-02-26T19:41:20.082Z,80.50
2023-02-26T19:44:13.413Z,74.20
2023-02-26T19:46:59.752Z,66.60
2023-02-26T19:49:51.536Z,62.90
2023-02-26T19:52:38.235Z,58.50
2023-02-26T19:55:30.655Z,58.20
2023-02-26T19:58:25.800Z,47.00
2023-02-26T20:01:18.477Z,39.20
2023-02-26T20:04:01.487Z,40.00
2023-02-26T20:06:43.660Z,59.00
2023-02-26T20:09:37.652Z,64.20
2023-02-26T20:12:31.791Z,81.70
2023-02-26T20:15:24.174Z,84.70
2023-02-26T20:18:10.003Z,109.00
2023-02-26T20:21:03.784Z,47.00
2023-02-26T20:24:05.974Z,48.40
2023-02-26T20:26:58.587Z,42.80
2023-02-26T20:29:43.502Z,46.70
2023-02-26T20:32:20.414Z,34.90
2023-02-26T20:35:14.850Z,36.60
2023-02-26T20:38:07.127Z,58.90
2023-02-26T20:43:35.198Z,16.10
2023-02-26T20:46:26.244Z,18.90
2023-02-26T20:49:29.890Z,24.20
2023-02-26T20:52:24.140Z,21.50
2023-02-26T20:55:10.770Z,25.90
2023-02-26T20:57:56.572Z,26.40
2023-02-26T21:00:41.155Z,29.00
2023-02-26T21:03:33.889Z,16.70
2023-02-26T21:09:17.608Z,17.40
2023-02-26T21:12:01.023Z,17.90
2023-02-26T21:14:47.587Z,23.60
2023-02-26T21:17:32.876Z,22.40
2023-02-26T21:20:25.202Z,22.70
2023-02-26T21:23:00.757Z,23.10
2023-02-26T21:25:53.171Z,27.50
2023-02-26T21:28:38.269Z,35.80
2023-02-26T21:31:16.279Z,33.40
2023-02-26T21:34:30.251Z,36.90
2023-02-26T21:37:14.161Z,52.40
2023-02-26T21:40:07.893Z,63.60
2023-02-26T21:42:59.930Z,58.90
2023-02-26T21:45:52.400Z,61.60
2023-02-26T21:48:37.809Z,49.80
2023-02-26T21:51:30.558Z,36.20
2023-02-26T21:54:23.200Z,22.10
2023-02-26T21:57:00.391Z,32.70
2023-02-26T22:02:44.094Z,25.70
2023-02-26T22:05:36.646Z,22.90
2023-02-26T22:11:19.958Z,23.00
2023-02-26T22:14:12.366Z,11.90
2023-02-26T22:19:55.649Z,17.80
2023-02-26T22:22:40.598Z,9.30
2023-02-26T22:25:33.881Z,18.00
2023-02-26T22:28:24.846Z,13.00
2023-02-26T22:31:17.225Z,15.80
2023-02-26T22:34:09.805Z,17.90
2023-02-26T22:36:54.814Z,19.40
2023-02-26T22:39:47.174Z,12.00
2023-02-26T22:42:39.567Z,13.90
2023-02-26T22:48:23.641Z,11.70
2023-02-26T22:51:09.134Z,11.20
2023-02-26T22:54:02.002Z,10.90
2023-02-26T22:56:44.258Z,13.30
2023-02-26T22:59:36.558Z,12.80
2023-02-26T23:02:21.577Z,13.00
2023-02-26T23:05:08.573Z,14.10
2023-02-26T23:08:00.969Z,12.10
2023-02-26T23:10:54.671Z,21.50
2023-02-26T23:13:47.351Z,12.90
2023-02-26T23:16:39.594Z,13.60
2023-02-26T23:19:28.544Z,13.10
2023-02-26T23:25:01.778Z,14.30
2023-02-26T23:30:45.280Z,11.80
2023-02-26T23:33:37.654Z,8.70
2023-02-26T23:36:23.883Z,11.40
2023-02-26T23:41:58.219Z,10.80
2023-02-26T23:44:50.618Z,13.00
2023-02-26T23:47:42.837Z,10.80
2023-02-26T23:50:38.151Z,13.90
2023-02-26T23:53:30.863Z,15.80
2023-02-26T23:59:03.817Z,26.00
